createdAt,value
2018-01-07T00:01:16.255Z,0.00
2018-01-07T00:02:16.255Z,0.00
2018-01-07T00:04:09.163Z,0.00
2018-01-07T00:05:09.161Z,0.00
2018-01-07T00:07:02.057Z,0.00
2018-01-07T00:08:02.072Z,0.00
2018-01-07T00:09:54.992Z,0.00
2018-01-07T00:10:54.980Z,0.00
2018-01-07T00:12:47.878Z,0.00
2018-01-07T00:13:47.896Z,0.00
2018-01-07T00:15:40.807Z,0.00
2018-01-07T00:16:40.802Z,0.00
2018-01-07T00:18:33.702Z,0.00
2018-01-07T00:19:33.713Z,0.00
2018-01-07T00:21:26.627Z,0.00
2018-01-07T00:22:26.619Z,0.00
2018-01-07T00:24:19.533Z,0.00
2018-01-07T00:25:19.532Z,0.00
2018-01-07T00:27:12.433Z,0.00
2018-01-07T00:28:12.448Z,0.00
2018-01-07T00:30:05.363Z,0.00
2018-01-07T00:31:05.359Z,0.00
2018-01-07T00:32:58.261Z,0.00
2018-01-07T00:33:58.275Z,0.00
2018-01-07T00:35:51.189Z,0.00
2018-01-07T00:36:51.183Z,0.00
2018-01-07T00:38:44.077Z,0.00
2018-01-07T00:39:44.090Z,0.00
2018-01-07T00:41:37.002Z,0.00
2018-01-07T00:42:37.001Z,0.00
2018-01-07T00:44:29.915Z,0.00
2018-01-07T00:45:29.909Z,0.00
2018-01-07T00:47:22.806Z,0.00
2018-01-07T00:48:22.820Z,0.00
2018-01-07T00:50:15.733Z,0.00
2018-01-07T00:51:15.731Z,0.00
2018-01-07T00:53:08.627Z,0.00
2018-01-07T00:54:08.640Z,0.00
2018-01-07T00:56:01.557Z,0.00
2018-01-07T00:57:01.561Z,0.00
2018-01-07T00:58:54.444Z,0.00
2018-01-07T00:59:54.459Z,0.00
2018-01-07T01:01:47.374Z,0.00
2018-01-07T01:02:47.369Z,0.00
2018-01-07T01:04:40.293Z,0.00
2018-01-07T01:05:40.279Z,0.00
2018-01-07T01:07:33.184Z,0.00
2018-01-07T01:08:33.196Z,0.00
2018-01-07T01:10:26.108Z,0.00
2018-01-07T01:11:26.109Z,0.00
2018-01-07T01:13:19.002Z,0.00
2018-01-07T01:14:19.017Z,0.00
2018-01-07T01:16:11.928Z,0.00
2018-01-07T01:17:11.927Z,0.00
2018-01-07T01:19:04.821Z,0.00
2018-01-07T01:20:04.837Z,0.00
2018-01-07T01:21:57.749Z,0.00
2018-01-07T01:22:57.751Z,0.00
2018-01-07T01:24:50.655Z,0.00
2018-01-07T01:25:50.655Z,0.00
2018-01-07T01:27:43.550Z,0.00
2018-01-07T01:28:43.568Z,0.00
2018-01-07T01:30:36.481Z,0.00
2018-01-07T01:31:36.475Z,0.00
2018-01-07T01:33:29.380Z,0.00
2018-01-07T01:34:29.397Z,0.00
2018-01-07T01:36:22.314Z,0.00
2018-01-07T01:37:22.310Z,0.00
2018-01-07T01:39:15.205Z,0.00
2018-01-07T01:40:15.221Z,0.00
2018-01-07T01:42:08.133Z,0.00
2018-01-07T01:43:08.129Z,0.00
2018-01-07T01:45:01.053Z,0.00
2018-01-07T01:46:01.052Z,0.00
2018-01-07T01:47:53.952Z,0.00
2018-01-07T01:48:53.960Z,0.00
2018-01-07T01:50:46.870Z,0.00
2018-01-07T01:51:46.871Z,0.00
2018-01-07T01:53:39.765Z,0.00
2018-01-07T01:54:39.779Z,0.00
2018-01-07T01:56:32.695Z,0.00
2018-01-07T01:57:32.691Z,0.00
2018-01-07T01:59:25.590Z,0.00
2018-01-07T02:00:25.605Z,0.00
2018-01-07T02:02:18.517Z,0.00
2018-01-07T02:03:18.513Z,0.00
2018-01-07T02:05:11.427Z,0.00
2018-01-07T02:06:11.423Z,0.00
2018-01-07T02:08:04.321Z,0.00
2018-01-07T02:09:04.335Z,0.00
2018-01-07T02:10:57.263Z,0.00
2018-01-07T02:11:57.246Z,0.00
2018-01-07T02:13:50.138Z,0.00
2018-01-07T02:14:50.153Z,0.00
2018-01-07T02:16:43.068Z,0.00
2018-01-07T02:17:43.064Z,0.00
2018-01-07T02:19:35.980Z,0.00
2018-01-07T02:20:35.979Z,0.00
2018-01-07T02:22:28.892Z,0.00
2018-01-07T02:23:28.888Z,0.00
2018-01-07T02:25:21.804Z,0.00
2018-01-07T02:26:21.796Z,0.00
2018-01-07T02:28:14.692Z,0.00
2018-01-07T02:29:14.707Z,0.00
2018-01-07T02:31:07.625Z,0.00
2018-01-07T02:32:07.621Z,0.00
2018-01-07T02:34:00.521Z,0.00
2018-01-07T02:35:00.534Z,0.00
2018-01-07T02:36:53.449Z,0.00
2018-01-07T02:37:53.442Z,0.00
2018-01-07T02:39:46.338Z,0.00
2018-01-07T02:40:46.353Z,0.00
2018-01-07T02:42:39.268Z,0.00
2018-01-07T02:43:39.265Z,0.00
2018-01-07T02:45:32.183Z,0.00
2018-01-07T02:46:32.173Z,0.00
2018-01-07T02:48:25.065Z,0.00
2018-01-07T02:49:25.080Z,0.00
2018-01-07T02:51:17.994Z,0.00
2018-01-07T02:52:17.990Z,0.00
2018-01-07T02:54:10.885Z,0.00
2018-01-07T02:55:10.905Z,0.00
2018-01-07T02:57:04.010Z,0.00
2018-01-07T02:58:04.018Z,0.00
2018-01-07T02:59:56.899Z,0.00
2018-01-07T03:00:56.918Z,0.00
2018-01-07T03:02:49.827Z,0.00
2018-01-07T03:03:49.825Z,0.00
2018-01-07T03:05:42.738Z,0.00
2018-01-07T03:06:42.738Z,0.00
2018-01-07T03:08:35.631Z,0.00
2018-01-07T03:09:35.644Z,0.00
2018-01-07T03:11:28.563Z,0.00
2018-01-07T03:12:28.562Z,0.00
2018-01-07T03:14:21.452Z,0.00
2018-01-07T03:15:21.466Z,0.00
2018-01-07T03:17:14.383Z,0.00
2018-01-07T03:18:14.380Z,0.00
2018-01-07T03:20:07.276Z,0.00
2018-01-07T03:21:07.292Z,0.00
2018-01-07T03:23:00.204Z,0.00
2018-01-07T03:24:00.204Z,0.00
2018-01-07T03:25:53.114Z,0.00
2018-01-07T03:26:53.114Z,0.00
2018-01-07T03:28:46.008Z,0.00
2018-01-07T03:29:46.021Z,0.00
2018-01-07T03:31:38.933Z,0.00
2018-01-07T03:32:38.933Z,0.00
2018-01-07T03:34:31.824Z,0.00
2018-01-07T03:35:31.854Z,0.00
2018-01-07T03:37:24.754Z,0.00
2018-01-07T03:38:24.751Z,0.00
2018-01-07T03:40:17.643Z,0.00
2018-01-07T03:41:17.667Z,0.00
2018-01-07T03:43:10.585Z,0.00
2018-01-07T03:44:10.570Z,0.00
2018-01-07T03:46:03.486Z,0.00
2018-01-07T03:47:03.478Z,0.00
2018-01-07T03:48:56.376Z,0.00
2018-01-07T03:49:56.392Z,0.00
2018-01-07T03:51:49.312Z,0.00
2018-01-07T03:52:49.302Z,0.00
2018-01-07T03:54:42.195Z,0.00
2018-01-07T03:55:42.210Z,0.00
2018-01-07T03:57:35.132Z,0.00
2018-01-07T03:58:35.128Z,0.00
2018-01-07T04:00:28.025Z,0.00
2018-01-07T04:01:28.041Z,0.00
2018-01-07T04:03:20.955Z,0.00
2018-01-07T04:04:20.952Z,0.00
2018-01-07T04:06:13.874Z,0.00
2018-01-07T04:07:13.867Z,0.00
2018-01-07T04:09:06.763Z,0.00
2018-01-07T04:10:06.777Z,0.00
2018-01-07T04:11:59.696Z,0.00
2018-01-07T04:12:59.689Z,0.00
2018-01-07T04:14:52.592Z,0.00
2018-01-07T04:15:52.610Z,0.00
2018-01-07T04:17:45.525Z,0.00
2018-01-07T04:18:45.520Z,0.00
2018-01-07T04:20:38.416Z,0.00
2018-01-07T04:21:38.428Z,0.00
2018-01-07T04:23:31.342Z,0.00
2018-01-07T04:24:31.337Z,0.00
2018-01-07T04:26:24.255Z,0.00
2018-01-07T04:27:24.255Z,0.00
2018-01-07T04:29:17.146Z,0.00
2018-01-07T04:30:17.160Z,0.00
2018-01-07T04:32:10.078Z,0.00
2018-01-07T04:33:10.073Z,0.00
2018-01-07T04:35:02.969Z,0.00
2018-01-07T04:36:02.981Z,0.00
2018-01-07T04:37:55.900Z,0.00
2018-01-07T04:38:55.896Z,0.00
2018-01-07T04:40:48.798Z,0.00
2018-01-07T04:41:48.814Z,0.00
2018-01-07T04:43:41.728Z,0.00
2018-01-07T04:44:41.731Z,0.00
2018-01-07T04:46:34.646Z,0.00
2018-01-07T04:47:34.635Z,0.00
2018-01-07T04:49:27.533Z,0.00
2018-01-07T04:50:27.543Z,0.00
2018-01-07T04:52:20.458Z,0.00
2018-01-07T04:53:20.455Z,0.00
2018-01-07T04:55:13.367Z,0.00
2018-01-07T04:56:13.363Z,0.00
2018-01-07T04:58:06.277Z,0.00
2018-01-07T04:59:06.272Z,0.00
2018-01-07T05:00:59.175Z,0.00
2018-01-07T05:01:59.190Z,0.00
2018-01-07T05:03:52.113Z,0.00
2018-01-07T05:04:52.109Z,0.00
2018-01-07T05:06:45.029Z,0.00
2018-01-07T05:07:45.026Z,0.00
2018-01-07T05:09:37.917Z,0.00
2018-01-07T05:10:37.939Z,0.00
2018-01-07T05:12:30.845Z,0.00
2018-01-07T05:13:30.840Z,0.00
2018-01-07T05:15:23.741Z,0.00
2018-01-07T05:16:23.757Z,0.00
2018-01-07T05:18:16.674Z,0.00
2018-01-07T05:19:16.670Z,0.00
2018-01-07T05:21:09.568Z,0.00
2018-01-07T05:22:09.578Z,0.00
2018-01-07T05:24:02.491Z,0.00
2018-01-07T05:25:02.486Z,0.00
2018-01-07T05:26:55.426Z,0.00
2018-01-07T05:27:55.401Z,0.00
2018-01-07T05:29:48.336Z,0.00
2018-01-07T05:30:48.349Z,0.00
2018-01-07T05:32:41.263Z,0.00
2018-01-07T05:33:41.260Z,0.00
2018-01-07T05:35:34.156Z,0.00
2018-01-07T05:36:34.169Z,0.00
2018-01-07T05:38:27.091Z,0.00
2018-01-07T05:39:27.087Z,0.00
2018-01-07T05:41:19.986Z,0.00
2018-01-07T05:42:20.003Z,0.00
2018-01-07T05:44:12.926Z,0.00
2018-01-07T05:45:12.920Z,0.00
2018-01-07T05:47:05.842Z,0.00
2018-01-07T05:48:05.824Z,0.00
2018-01-07T05:49:59.217Z,0.00
2018-01-07T05:50:59.234Z,0.00
2018-01-07T05:52:52.144Z,0.00
2018-01-07T05:53:52.142Z,0.00
2018-01-07T05:55:45.036Z,0.00
2018-01-07T05:56:45.051Z,0.00
2018-01-07T05:58:37.966Z,0.00
2018-01-07T05:59:37.963Z,0.00
2018-01-07T06:01:30.862Z,0.00
2018-01-07T06:02:30.874Z,0.00
2018-01-07T06:04:23.788Z,0.00
2018-01-07T06:05:23.791Z,0.00
2018-01-07T06:07:16.719Z,0.00
2018-01-07T06:08:16.693Z,0.00
2018-01-07T06:10:09.595Z,0.00
2018-01-07T06:11:09.642Z,0.00
2018-01-07T06:13:02.520Z,0.00
2018-01-07T06:14:02.516Z,0.00
2018-01-07T06:15:55.420Z,0.00
2018-01-07T06:16:55.428Z,0.00
2018-01-07T06:18:48.345Z,0.00
2018-01-07T06:19:48.340Z,0.00
2018-01-07T06:21:41.240Z,0.00
2018-01-07T06:22:41.251Z,0.00
2018-01-07T06:24:34.657Z,0.00
2018-01-07T06:25:34.653Z,0.00
2018-01-07T06:27:27.568Z,0.00
2018-01-07T06:28:27.564Z,0.00
2018-01-07T06:30:20.489Z,0.00
2018-01-07T06:31:20.485Z,0.00
2018-01-07T06:33:13.397Z,0.00
2018-01-07T06:34:13.391Z,0.00
2018-01-07T06:36:06.290Z,0.00
2018-01-07T06:37:06.304Z,0.00
2018-01-07T06:38:59.711Z,0.00
2018-01-07T06:39:59.707Z,0.00
2018-01-07T06:41:52.604Z,0.00
2018-01-07T06:42:52.615Z,0.00
2018-01-07T06:44:45.529Z,0.00
2018-01-07T06:45:45.523Z,0.00
2018-01-07T06:47:38.460Z,0.00
2018-01-07T06:48:38.435Z,0.00
2018-01-07T06:50:31.329Z,0.00
2018-01-07T06:51:31.341Z,0.00
2018-01-07T06:53:24.254Z,0.00
2018-01-07T06:54:24.249Z,0.00
2018-01-07T06:56:17.145Z,0.00
2018-01-07T06:57:17.161Z,0.00
2018-01-07T06:59:10.082Z,0.00
2018-01-07T07:00:10.074Z,0.00
2018-01-07T07:02:03.457Z,4.00
2018-01-07T07:03:03.471Z,4.00
2018-01-07T07:04:56.386Z,4.00
2018-01-07T07:05:56.379Z,4.00
2018-01-07T07:07:49.273Z,4.00
2018-01-07T07:08:49.289Z,8.00
2018-01-07T07:10:42.205Z,12.00
2018-01-07T07:11:42.204Z,12.00
2018-01-07T07:13:35.117Z,16.00
2018-01-07T07:14:35.109Z,16.00
2018-01-07T07:16:28.008Z,20.00
2018-01-07T07:17:28.023Z,20.00
2018-01-07T07:19:20.939Z,28.00
2018-01-07T07:20:20.933Z,28.00
2018-01-07T07:22:13.832Z,36.00
2018-01-07T07:23:13.849Z,40.00
2018-01-07T07:25:06.761Z,48.00
2018-01-07T07:26:06.756Z,56.00
2018-01-07T07:28:00.157Z,64.00
2018-01-07T07:29:00.172Z,68.00
2018-01-07T07:30:53.087Z,80.00
2018-01-07T07:31:53.083Z,84.00
2018-01-07T07:33:46.511Z,100.00
2018-01-07T07:34:46.506Z,104.00
2018-01-07T07:36:39.405Z,116.00
2018-01-07T07:37:39.418Z,120.00
2018-01-07T07:39:32.331Z,136.00
2018-01-07T07:40:32.328Z,148.00
2018-01-07T07:42:25.222Z,172.00
2018-01-07T07:43:25.237Z,188.00
2018-01-07T07:45:18.151Z,212.00
2018-01-07T07:46:18.144Z,220.00
2018-01-07T07:48:11.090Z,244.00
2018-01-07T07:49:11.062Z,256.00
2018-01-07T07:51:03.960Z,280.00
2018-01-07T07:52:03.976Z,296.00
2018-01-07T07:53:56.889Z,324.00
2018-01-07T07:54:56.880Z,336.00
2018-01-07T07:56:49.782Z,352.00
2018-01-07T07:57:49.792Z,376.00
2018-01-07T07:59:42.707Z,396.00
2018-01-07T08:00:42.704Z,400.00
2018-01-07T08:02:35.601Z,420.00
2018-01-07T08:03:35.615Z,428.00
2018-01-07T08:05:28.527Z,452.00
2018-01-07T08:06:28.521Z,472.00
2018-01-07T08:08:21.419Z,492.00
2018-01-07T08:09:21.429Z,504.00
2018-01-07T08:11:14.344Z,528.00
2018-01-07T08:12:14.351Z,552.00
2018-01-07T08:14:07.748Z,596.00
2018-01-07T08:15:07.743Z,612.00
2018-01-07T08:17:02.138Z,668.00
2018-01-07T08:18:02.147Z,684.00
2018-01-07T08:19:55.552Z,712.00
2018-01-07T08:20:55.553Z,760.00
2018-01-07T08:22:48.443Z,828.00
2018-01-07T08:23:48.462Z,848.00
2018-01-07T08:25:41.373Z,908.00
2018-01-07T08:26:41.438Z,916.00
2018-01-07T08:28:34.265Z,960.00
2018-01-07T08:29:34.282Z,984.00
2018-01-07T08:31:27.191Z,1004.00
2018-01-07T08:32:27.185Z,1024.00
2018-01-07T08:34:20.098Z,1064.00
2018-01-07T08:35:20.092Z,1076.00
2018-01-07T08:37:12.997Z,1116.00
2018-01-07T08:38:13.010Z,1140.00
2018-01-07T08:40:05.925Z,1192.00
2018-01-07T08:41:05.921Z,1212.00
2018-01-07T08:42:58.885Z,1240.00
2018-01-07T08:43:58.900Z,1256.00
2018-01-07T08:45:51.858Z,1276.00
2018-01-07T08:46:51.854Z,1288.00
2018-01-07T08:48:44.787Z,1332.00
2018-01-07T08:49:44.799Z,1348.00
2018-01-07T08:51:37.760Z,1372.00
2018-01-07T08:52:37.755Z,1396.00
2018-01-07T08:54:31.229Z,1440.00
2018-01-07T08:55:31.226Z,1468.00
2018-01-07T08:57:24.162Z,1520.00
2018-01-07T08:58:24.176Z,1540.00
2018-01-07T09:00:17.138Z,1560.00
2018-01-07T09:01:17.134Z,1564.00
2018-01-07T09:03:10.071Z,1564.00
2018-01-07T09:04:10.083Z,1568.00
2018-01-07T09:06:03.045Z,1584.00
2018-01-07T09:07:03.039Z,1596.00
2018-01-07T09:08:55.984Z,1636.00
2018-01-07T09:09:56.004Z,1668.00
2018-01-07T09:11:48.951Z,1736.00
2018-01-07T09:12:48.958Z,1796.00
2018-01-07T09:14:44.468Z,1912.00
2018-01-07T09:15:44.471Z,1960.00
2018-01-07T09:17:37.406Z,2052.00
2018-01-07T09:18:37.418Z,2120.00
2018-01-07T09:20:30.378Z,2224.00
2018-01-07T09:21:30.373Z,2292.00
2018-01-07T09:23:23.312Z,2356.00
2018-01-07T09:24:23.326Z,2396.00
2018-01-07T09:26:16.285Z,2464.00
2018-01-07T09:27:16.283Z,2508.00
2018-01-07T09:29:09.240Z,2544.00
2018-01-07T09:30:09.237Z,2568.00
2018-01-07T09:32:02.199Z,2612.00
2018-01-07T09:33:02.189Z,2628.00
2018-01-07T09:34:55.661Z,2680.00
2018-01-07T09:35:55.657Z,2740.00
2018-01-07T09:37:48.596Z,2808.00
2018-01-07T09:38:48.613Z,2820.00
2018-01-07T09:40:41.575Z,2956.00
2018-01-07T09:41:41.570Z,2984.00
2018-01-07T09:43:35.017Z,2876.00
2018-01-07T09:44:35.029Z,3016.00
2018-01-07T09:46:28.503Z,3236.00
2018-01-07T09:47:28.500Z,3384.00
2018-01-07T09:49:21.455Z,3236.00
2018-01-07T09:50:21.455Z,3568.00
2018-01-07T09:52:14.412Z,3648.00
2018-01-07T09:53:14.410Z,3896.00
2018-01-07T09:55:07.362Z,4140.00
2018-01-07T09:56:07.357Z,4280.00
2018-01-07T09:58:00.298Z,3968.00
2018-01-07T09:59:00.313Z,4132.00
2018-01-07T10:00:53.784Z,4244.00
2018-01-07T10:01:53.780Z,3688.00
2018-01-07T10:03:46.718Z,3456.00
2018-01-07T10:04:46.732Z,3564.00
2018-01-07T10:06:39.690Z,3604.00
2018-01-07T10:07:39.693Z,3688.00
2018-01-07T10:09:32.662Z,3732.00
2018-01-07T10:10:32.640Z,3764.00
2018-01-07T10:12:25.580Z,3940.00
2018-01-07T10:13:25.595Z,4048.00
2018-01-07T10:15:18.553Z,4128.00
2018-01-07T10:16:18.549Z,4296.00
2018-01-07T10:18:11.490Z,4384.00
2018-01-07T10:19:11.504Z,4476.00
2018-01-07T10:21:04.462Z,4764.00
2018-01-07T10:22:04.458Z,4640.00
2018-01-07T10:23:57.398Z,4332.00
2018-01-07T10:24:57.411Z,4652.00
2018-01-07T10:26:50.370Z,4828.00
2018-01-07T10:27:50.365Z,4744.00
2018-01-07T10:29:43.343Z,5092.00
2018-01-07T10:30:43.320Z,4808.00
2018-01-07T10:32:43.735Z,4800.00
2018-01-07T10:33:43.750Z,4652.00
2018-01-07T10:35:36.708Z,4888.00
2018-01-07T10:36:36.724Z,4752.00
2018-01-07T10:38:29.643Z,4820.00
2018-01-07T10:39:29.658Z,4712.00
2018-01-07T10:41:22.618Z,4960.00
2018-01-07T10:42:22.611Z,5108.00
2018-01-07T10:44:15.730Z,4824.00
2018-01-07T10:45:15.568Z,5036.00
2018-01-07T10:47:08.525Z,5048.00
2018-01-07T10:48:08.519Z,4780.00
2018-01-07T10:50:01.990Z,4596.00
2018-01-07T10:51:01.986Z,4380.00
2018-01-07T10:52:54.928Z,4336.00
2018-01-07T10:53:54.941Z,4260.00
2018-01-07T10:55:47.901Z,4356.00
2018-01-07T10:56:48.011Z,4284.00
2018-01-07T10:58:40.836Z,4188.00
2018-01-07T10:59:40.848Z,4380.00
2018-01-07T11:01:33.807Z,4212.00
2018-01-07T11:02:33.803Z,4236.00
2018-01-07T11:04:26.743Z,4560.00
2018-01-07T11:05:26.757Z,4536.00
2018-01-07T11:07:19.718Z,4372.00
2018-01-07T11:08:19.713Z,4716.00
2018-01-07T11:10:12.699Z,4556.00
2018-01-07T11:11:12.665Z,4232.00
2018-01-07T11:13:05.610Z,4196.00
2018-01-07T11:14:05.625Z,4268.00
2018-01-07T11:15:58.577Z,4468.00
2018-01-07T11:16:58.573Z,4484.00
2018-01-07T11:18:51.514Z,4500.00
2018-01-07T11:19:51.535Z,4252.00
2018-01-07T11:21:44.485Z,3644.00
2018-01-07T11:22:44.483Z,3108.00
2018-01-07T11:24:37.421Z,3312.00
2018-01-07T11:25:37.437Z,3176.00
2018-01-07T11:27:30.400Z,3520.00
2018-01-07T11:28:30.395Z,3652.00
2018-01-07T11:30:23.348Z,3628.00
2018-01-07T11:31:23.342Z,3264.00
2018-01-07T11:33:16.283Z,3296.00
2018-01-07T11:34:16.298Z,3244.00
2018-01-07T11:36:09.257Z,2644.00
2018-01-07T11:37:09.252Z,2668.00
2018-01-07T11:39:04.751Z,2448.00
2018-01-07T11:40:04.766Z,2500.00
2018-01-07T11:41:57.746Z,2548.00
2018-01-07T11:42:57.720Z,2496.00
2018-01-07T11:44:50.660Z,2616.00
2018-01-07T11:45:50.674Z,2612.00
2018-01-07T11:47:43.635Z,2608.00
2018-01-07T11:48:43.631Z,2756.00
2018-01-07T11:50:36.591Z,2732.00
2018-01-07T11:51:36.584Z,2864.00
2018-01-07T11:53:29.524Z,2656.00
2018-01-07T11:54:29.539Z,2664.00
2018-01-07T11:56:23.011Z,2676.00
2018-01-07T11:57:23.002Z,2632.00
2018-01-07T11:59:15.942Z,2604.00
2018-01-07T12:00:15.958Z,2664.00
2018-01-07T12:02:08.922Z,2456.00
2018-01-07T12:03:08.910Z,2432.00
2018-01-07T12:05:01.854Z,2424.00
2018-01-07T12:06:01.866Z,2412.00
2018-01-07T12:07:54.827Z,2452.00
2018-01-07T12:08:54.824Z,2444.00
2018-01-07T12:10:49.315Z,2448.00
2018-01-07T12:11:49.316Z,2428.00
2018-01-07T12:13:42.762Z,2416.00
2018-01-07T12:14:42.778Z,2400.00
2018-01-07T12:16:35.735Z,2340.00
2018-01-07T12:17:35.730Z,2364.00
2018-01-07T12:19:30.205Z,2324.00
2018-01-07T12:20:30.219Z,2328.00
2018-01-07T12:22:23.180Z,2320.00
2018-01-07T12:23:23.174Z,2304.00
2018-01-07T12:25:16.624Z,2348.00
2018-01-07T12:26:16.642Z,2396.00
2018-01-07T12:28:09.601Z,2364.00
2018-01-07T12:29:09.597Z,2316.00
2018-01-07T12:31:02.573Z,2288.00
2018-01-07T12:32:02.567Z,2268.00
2018-01-07T12:33:55.487Z,2368.00
2018-01-07T12:34:55.502Z,2472.00
2018-01-07T12:36:48.461Z,2244.00
2018-01-07T12:37:48.456Z,2256.00
2018-01-07T12:39:41.420Z,2260.00
2018-01-07T12:40:41.412Z,2252.00
2018-01-07T12:42:34.372Z,2232.00
2018-01-07T12:43:34.364Z,2272.00
2018-01-07T12:45:30.368Z,2220.00
2018-01-07T12:46:30.368Z,2220.00
2018-01-07T12:48:23.353Z,2312.00
2018-01-07T12:49:23.450Z,2456.00
2018-01-07T12:51:16.418Z,2272.00
2018-01-07T12:52:16.503Z,2256.00
2018-01-07T12:54:09.345Z,2248.00
2018-01-07T12:55:09.359Z,2244.00
2018-01-07T12:57:02.313Z,2220.00
2018-01-07T12:58:02.309Z,2224.00
2018-01-07T12:59:55.249Z,2224.00
2018-01-07T13:00:55.266Z,2212.00
2018-01-07T13:02:48.221Z,2200.00
2018-01-07T13:03:48.217Z,2192.00
2018-01-07T13:05:41.157Z,2184.00
2018-01-07T13:06:41.173Z,2176.00
2018-01-07T13:08:34.141Z,2172.00
2018-01-07T13:09:34.137Z,2168.00
2018-01-07T13:11:27.086Z,2168.00
2018-01-07T13:12:27.082Z,2164.00
2018-01-07T13:14:20.025Z,2148.00
2018-01-07T13:15:20.038Z,2144.00
2018-01-07T13:17:12.960Z,2136.00
2018-01-07T13:18:12.965Z,2136.00
2018-01-07T13:20:05.858Z,2128.00
2018-01-07T13:21:05.877Z,2128.00
2018-01-07T13:22:59.338Z,2120.00
2018-01-07T13:23:59.306Z,2112.00
2018-01-07T13:25:52.201Z,2100.00
2018-01-07T13:26:52.224Z,2104.00
2018-01-07T13:28:45.221Z,2096.00
2018-01-07T13:29:45.217Z,2080.00
2018-01-07T13:31:38.173Z,2064.00
2018-01-07T13:32:38.171Z,2056.00
2018-01-07T13:34:31.062Z,2040.00
2018-01-07T13:35:31.077Z,2040.00
2018-01-07T13:37:24.084Z,2028.00
2018-01-07T13:38:24.084Z,2028.00
2018-01-07T13:40:17.037Z,2040.00
2018-01-07T13:41:17.031Z,2020.00
2018-01-07T13:43:09.945Z,2000.00
2018-01-07T13:44:09.939Z,1988.00
2018-01-07T13:46:02.928Z,1972.00
2018-01-07T13:47:02.941Z,1964.00
2018-01-07T13:48:55.897Z,1948.00
2018-01-07T13:49:55.891Z,1940.00
2018-01-07T13:51:48.830Z,1924.00
2018-01-07T13:52:48.964Z,1916.00
2018-01-07T13:54:41.793Z,1912.00
2018-01-07T13:55:41.805Z,1908.00
2018-01-07T13:57:34.925Z,1884.00
2018-01-07T13:58:34.762Z,1880.00
2018-01-07T14:00:27.694Z,1864.00
2018-01-07T14:01:27.708Z,1868.00
2018-01-07T14:03:20.667Z,1884.00
2018-01-07T14:04:20.664Z,1892.00
2018-01-07T14:06:13.655Z,1980.00
2018-01-07T14:07:13.664Z,1956.00
2018-01-07T14:09:06.580Z,1864.00
2018-01-07T14:10:06.581Z,1900.00
2018-01-07T14:11:59.508Z,1760.00
2018-01-07T14:12:59.501Z,1744.00
2018-01-07T14:14:52.471Z,1720.00
2018-01-07T14:15:52.481Z,1708.00
2018-01-07T14:17:45.439Z,1680.00
2018-01-07T14:18:45.436Z,1672.00
2018-01-07T14:20:38.392Z,1644.00
2018-01-07T14:21:38.352Z,1624.00
2018-01-07T14:23:31.397Z,1596.00
2018-01-07T14:24:31.346Z,1580.00
2018-01-07T14:26:24.317Z,1552.00
2018-01-07T14:27:24.253Z,1540.00
2018-01-07T14:29:17.172Z,1516.00
2018-01-07T14:30:17.177Z,1500.00
2018-01-07T14:32:10.109Z,1472.00
2018-01-07T14:33:10.105Z,1456.00
2018-01-07T14:35:03.100Z,1424.00
2018-01-07T14:36:03.061Z,1404.00
2018-01-07T14:37:55.972Z,1376.00
2018-01-07T14:38:55.968Z,1356.00
2018-01-07T14:40:48.867Z,1316.00
2018-01-07T14:41:48.884Z,1300.00
2018-01-07T14:43:41.820Z,1252.00
2018-01-07T14:44:41.815Z,1236.00
2018-01-07T14:46:35.102Z,1196.00
2018-01-07T14:47:34.770Z,1180.00
2018-01-07T14:49:29.177Z,1136.00
2018-01-07T14:50:29.172Z,1108.00
2018-01-07T14:52:23.140Z,1068.00
2018-01-07T14:53:23.135Z,1048.00
2018-01-07T14:55:16.076Z,1008.00
2018-01-07T14:56:16.089Z,988.00
2018-01-07T14:58:09.039Z,944.00
2018-01-07T14:59:09.004Z,924.00
2018-01-07T15:01:02.145Z,884.00
2018-01-07T15:02:01.913Z,860.00
2018-01-07T15:03:54.830Z,812.00
2018-01-07T15:04:54.826Z,788.00
2018-01-07T15:06:47.722Z,748.00
2018-01-07T15:07:47.813Z,724.00
2018-01-07T15:09:41.311Z,676.00
2018-01-07T15:10:41.296Z,652.00
2018-01-07T15:12:34.752Z,596.00
2018-01-07T15:13:34.718Z,572.00
2018-01-07T15:15:28.651Z,516.00
2018-01-07T15:16:28.701Z,492.00
2018-01-07T15:18:21.542Z,440.00
2018-01-07T15:19:21.535Z,420.00
2018-01-07T15:21:19.842Z,376.00
2018-01-07T15:22:19.744Z,348.00
2018-01-07T15:24:12.668Z,316.00
2018-01-07T15:25:12.685Z,296.00
2018-01-07T15:27:06.054Z,260.00
2018-01-07T15:28:06.065Z,244.00
2018-01-07T15:29:58.978Z,220.00
2018-01-07T15:30:58.977Z,200.00
2018-01-07T15:32:52.880Z,176.00
2018-01-07T15:33:52.878Z,160.00
2018-01-07T15:35:45.770Z,140.00
2018-01-07T15:36:45.787Z,128.00
2018-01-07T15:38:38.725Z,104.00
2018-01-07T15:39:38.695Z,96.00
2018-01-07T15:41:31.589Z,76.00
2018-01-07T15:42:31.607Z,68.00
2018-01-07T15:44:24.540Z,60.00
2018-01-07T15:45:24.522Z,52.00
2018-01-07T15:47:17.410Z,40.00
2018-01-07T15:48:17.422Z,36.00
2018-01-07T15:50:10.413Z,28.00
2018-01-07T15:51:10.407Z,24.00
2018-01-07T15:53:03.324Z,20.00
2018-01-07T15:54:03.318Z,16.00
2018-01-07T15:55:56.213Z,12.00
2018-01-07T15:56:56.230Z,12.00
2018-01-07T15:58:49.134Z,8.00
2018-01-07T15:59:49.133Z,4.00
2018-01-07T16:01:42.115Z,4.00
2018-01-07T16:02:42.122Z,4.00
2018-01-07T16:04:35.080Z,4.00
2018-01-07T16:05:35.081Z,4.00
2018-01-07T16:07:28.021Z,0.00
2018-01-07T16:08:28.032Z,0.00
2018-01-07T16:10:21.055Z,0.00
2018-01-07T16:11:20.987Z,0.00
2018-01-07T16:13:13.950Z,0.00
2018-01-07T16:14:13.937Z,0.00
2018-01-07T16:16:06.893Z,0.00
2018-01-07T16:17:06.892Z,0.00
2018-01-07T16:19:01.388Z,0.00
2018-01-07T16:20:01.383Z,0.00
2018-01-07T16:21:55.968Z,0.00
2018-01-07T16:22:55.973Z,0.00
2018-01-07T16:24:48.933Z,0.00
2018-01-07T16:25:48.942Z,0.00
2018-01-07T16:27:42.382Z,0.00
2018-01-07T16:28:42.449Z,0.00
2018-01-07T16:30:35.356Z,0.00
2018-01-07T16:31:35.351Z,0.00
2018-01-07T16:33:28.308Z,0.00
2018-01-07T16:34:28.302Z,0.00
2018-01-07T16:36:21.755Z,0.00
2018-01-07T16:37:21.768Z,0.00
2018-01-07T16:39:14.736Z,0.00
2018-01-07T16:40:14.724Z,0.00
2018-01-07T16:42:09.211Z,0.00
2018-01-07T16:43:09.213Z,0.00
2018-01-07T16:45:02.180Z,0.00
2018-01-07T16:46:02.168Z,0.00
2018-01-07T16:47:55.128Z,0.00
2018-01-07T16:48:55.123Z,0.00
2018-01-07T16:50:50.609Z,0.00
2018-01-07T16:51:50.604Z,0.00
2018-01-07T16:53:43.596Z,0.00
2018-01-07T16:54:43.691Z,0.00
2018-01-07T16:56:36.537Z,0.00
2018-01-07T16:57:36.543Z,0.00
2018-01-07T16:59:29.502Z,0.00
2018-01-07T17:00:29.511Z,0.00
2018-01-07T17:02:22.446Z,0.00
2018-01-07T17:03:22.451Z,0.00
2018-01-07T17:05:15.411Z,0.00
2018-01-07T17:06:15.409Z,0.00
2018-01-07T17:08:08.364Z,0.00
2018-01-07T17:09:08.361Z,0.00
2018-01-07T17:11:01.319Z,0.00
2018-01-07T17:12:01.314Z,0.00
2018-01-07T17:13:54.288Z,0.00
2018-01-07T17:14:54.270Z,0.00
2018-01-07T17:16:47.213Z,0.00
2018-01-07T17:17:47.224Z,0.00
2018-01-07T17:19:40.186Z,0.00
2018-01-07T17:20:40.176Z,0.00
2018-01-07T17:22:33.204Z,0.00
2018-01-07T17:23:33.358Z,0.00
2018-01-07T17:25:26.090Z,0.00
2018-01-07T17:26:26.085Z,0.00
2018-01-07T17:28:19.548Z,0.00
2018-01-07T17:29:19.562Z,0.00
2018-01-07T17:31:12.508Z,0.00
2018-01-07T17:32:12.503Z,0.00
2018-01-07T17:34:05.463Z,0.00
2018-01-07T17:35:05.459Z,0.00
2018-01-07T17:36:58.400Z,0.00
2018-01-07T17:37:58.412Z,0.00
2018-01-07T17:39:52.909Z,0.00
2018-01-07T17:40:52.904Z,0.00
2018-01-07T17:42:45.844Z,0.00
2018-01-07T17:43:45.858Z,0.00
2018-01-07T17:45:38.819Z,0.00
2018-01-07T17:46:38.812Z,0.00
2018-01-07T17:48:31.754Z,0.00
2018-01-07T17:49:31.766Z,0.00
2018-01-07T17:51:24.726Z,0.00
2018-01-07T17:52:24.720Z,0.00
2018-01-07T17:54:17.685Z,0.00
2018-01-07T17:55:17.675Z,0.00
2018-01-07T17:57:10.615Z,0.00
2018-01-07T17:58:10.632Z,0.00
2018-01-07T18:00:03.586Z,0.00
2018-01-07T18:01:03.582Z,0.00
2018-01-07T18:02:56.525Z,0.00
2018-01-07T18:03:56.541Z,0.00
2018-01-07T18:05:49.505Z,0.00
2018-01-07T18:06:49.492Z,0.00
2018-01-07T18:08:42.431Z,0.00
2018-01-07T18:09:42.449Z,0.00
2018-01-07T18:11:35.408Z,0.00
2018-01-07T18:12:35.404Z,0.00
2018-01-07T18:14:28.365Z,0.00
2018-01-07T18:15:28.353Z,0.00
2018-01-07T18:17:21.808Z,0.00
2018-01-07T18:18:21.825Z,0.00
2018-01-07T18:20:14.804Z,0.00
2018-01-07T18:21:14.805Z,0.00
2018-01-07T18:23:07.716Z,0.00
2018-01-07T18:24:07.830Z,0.00
2018-01-07T18:26:00.687Z,0.00